createdAt,value
2019-04-03T00:01:42.465Z,43.58
2019-04-03T00:04:13.184Z,43.46
2019-04-03T00:06:44.010Z,43.54
2019-04-03T00:09:14.993Z,43.61
2019-04-03T00:11:45.776Z,43.66
2019-04-03T00:14:17.711Z,43.92
2019-04-03T00:16:48.520Z,43.86
2019-04-03T00:19:38.000Z,43.86
2019-04-03T00:22:08.842Z,43.95
2019-04-03T00:24:39.632Z,43.95
2019-04-03T00:27:10.609Z,43.96
2019-04-03T00:29:41.231Z,43.91
2019-04-03T00:32:11.796Z,43.82
2019-04-03T00:34:42.547Z,43.83
2019-04-03T00:37:13.536Z,43.80
2019-04-03T00:39:44.268Z,43.77
2019-04-03T00:42:14.885Z,43.71
2019-04-03T00:44:45.640Z,43.65
2019-04-03T00:47:16.429Z,43.54
2019-04-03T00:49:47.367Z,43.65
2019-04-03T00:52:18.163Z,43.37
2019-04-03T00:54:52.191Z,43.06
2019-04-03T00:57:22.988Z,42.83
2019-04-03T00:59:54.689Z,42.71
2019-04-03T01:02:28.284Z,42.56
2019-04-03T01:04:59.120Z,42.21
2019-04-03T01:07:29.899Z,42.00
2019-04-03T01:10:00.526Z,41.83
2019-04-03T01:12:31.525Z,41.88
2019-04-03T01:15:02.533Z,41.69
2019-04-03T01:17:34.869Z,41.76
2019-04-03T01:20:06.957Z,41.94
2019-04-03T01:22:37.873Z,42.23
2019-04-03T01:25:09.979Z,42.42
2019-04-03T01:27:41.587Z,42.24
2019-04-03T01:30:13.941Z,42.16
2019-04-03T01:32:46.803Z,42.07
2019-04-03T01:35:17.987Z,41.95
2019-04-03T01:37:50.028Z,41.81
2019-04-03T01:40:21.087Z,41.62
2019-04-03T01:42:52.776Z,41.46
2019-04-03T01:45:25.900Z,41.17
2019-04-03T01:47:58.232Z,40.94
2019-04-03T01:50:29.284Z,41.28
2019-04-03T01:53:02.744Z,41.67
2019-04-03T01:55:34.491Z,41.97
2019-04-03T01:58:06.549Z,41.99
2019-04-03T02:00:38.180Z,42.03
2019-04-03T02:03:10.307Z,42.08
2019-04-03T02:05:43.987Z,42.13
2019-04-03T02:08:15.369Z,42.25
2019-04-03T02:10:48.259Z,42.50
2019-04-03T02:13:21.147Z,42.52
2019-04-03T02:15:52.559Z,42.66
2019-04-03T02:18:25.154Z,42.80
2019-04-03T02:20:57.796Z,43.14
2019-04-03T02:23:30.349Z,43.34
2019-04-03T02:26:02.289Z,43.43
2019-04-03T02:28:34.922Z,43.60
2019-04-03T02:31:05.289Z,43.62
2019-04-03T02:33:36.135Z,43.74
2019-04-03T02:36:07.107Z,44.04
2019-04-03T02:38:37.910Z,44.08
2019-04-03T02:41:08.977Z,44.14
2019-04-03T02:43:45.584Z,44.34
2019-04-03T02:46:14.770Z,44.40
2019-04-03T02:48:45.693Z,44.13
2019-04-03T02:51:16.987Z,44.04
2019-04-03T02:53:49.000Z,43.68
2019-04-03T02:56:19.607Z,43.37
2019-04-03T02:58:53.356Z,43.20
2019-04-03T03:01:22.514Z,43.04
2019-04-03T03:03:53.222Z,42.85
2019-04-03T03:06:24.444Z,42.82
2019-04-03T03:08:55.539Z,42.82
2019-04-03T03:11:27.255Z,42.92
2019-04-03T03:13:58.032Z,43.11
2019-04-03T03:16:29.072Z,43.17
2019-04-03T03:19:01.528Z,43.45
2019-04-03T03:21:33.315Z,43.97
2019-04-03T03:24:04.918Z,44.12
2019-04-03T03:26:37.370Z,44.27
2019-04-03T03:29:17.971Z,44.25
2019-04-03T03:32:01.357Z,44.41
2019-04-03T03:34:15.509Z,44.67
2019-04-03T03:36:47.525Z,44.88
2019-04-03T03:39:18.907Z,45.18
2019-04-03T03:41:50.248Z,45.28
2019-04-03T03:44:23.110Z,45.46
2019-04-03T03:46:55.252Z,45.43
2019-04-03T03:49:27.662Z,45.63
2019-04-03T03:52:02.906Z,45.83
2019-04-03T03:54:31.804Z,45.84
2019-04-03T03:57:04.743Z,45.90
2019-04-03T03:59:36.088Z,45.91
2019-04-03T04:02:06.736Z,46.40
2019-04-03T04:04:37.848Z,46.58
2019-04-03T04:07:08.549Z,46.49
2019-04-03T04:09:39.363Z,46.47
2019-04-03T04:12:10.265Z,46.22
2019-04-03T04:14:41.595Z,45.92
2019-04-03T04:17:16.886Z,45.57
2019-04-03T04:19:47.523Z,45.30
2019-04-03T04:22:20.845Z,45.04
2019-04-03T04:24:51.681Z,44.40
2019-04-03T04:27:22.950Z,44.18
2019-04-03T04:29:54.603Z,43.84
2019-04-03T04:32:25.464Z,43.16
2019-04-03T04:34:56.076Z,43.34
2019-04-03T04:37:28.157Z,44.12
2019-04-03T04:39:59.693Z,44.38
2019-04-03T04:42:34.354Z,44.34
2019-04-03T04:45:05.033Z,44.95
2019-04-03T04:47:35.799Z,45.82
2019-04-03T04:50:06.775Z,46.94
2019-04-03T04:52:37.646Z,47.36
2019-04-03T04:55:08.428Z,48.13
2019-04-03T04:57:41.342Z,48.77
2019-04-03T05:00:15.105Z,49.57
2019-04-03T05:02:44.918Z,50.42
2019-04-03T05:05:15.385Z,50.81
2019-04-03T05:07:46.093Z,50.39
2019-04-03T05:10:17.996Z,50.17
2019-04-03T05:12:48.679Z,49.99
2019-04-03T05:15:23.471Z,49.97
2019-04-03T05:17:52.919Z,49.78
2019-04-03T05:20:23.432Z,49.62
2019-04-03T05:22:55.410Z,49.66
2019-04-03T05:25:26.249Z,49.68
2019-04-03T05:27:58.416Z,49.37
2019-04-03T05:30:36.815Z,48.57
2019-04-03T05:33:09.018Z,48.77
2019-04-03T05:35:45.585Z,48.19
2019-04-03T05:38:15.637Z,46.32
2019-04-03T05:40:46.327Z,43.96
2019-04-03T05:43:17.050Z,40.59
2019-04-03T05:45:48.160Z,37.87
2019-04-03T05:48:20.006Z,36.23
2019-04-03T05:50:50.922Z,34.54
2019-04-03T05:53:21.634Z,34.32
2019-04-03T05:55:52.186Z,32.72
2019-04-03T05:58:24.139Z,32.11
2019-04-03T06:01:04.462Z,30.47
2019-04-03T06:03:40.385Z,30.66
2019-04-03T06:06:01.305Z,29.03
2019-04-03T06:19:11.025Z,31.16
2019-04-03T06:21:41.978Z,31.27
2019-04-03T06:24:12.385Z,31.19
2019-04-03T06:26:44.899Z,32.12
2019-04-03T06:29:15.097Z,31.63
2019-04-03T06:31:46.481Z,32.70
2019-04-03T06:34:16.983Z,32.62
2019-04-03T06:36:49.784Z,34.01
2019-04-03T06:39:22.303Z,34.03
2019-04-03T06:41:51.545Z,34.96
2019-04-03T06:44:23.082Z,34.74
2019-04-03T06:46:55.103Z,35.24
2019-04-03T06:49:25.932Z,35.76
2019-04-03T06:51:56.878Z,36.42
2019-04-03T06:54:27.829Z,35.95
2019-04-03T06:56:58.871Z,35.93
2019-04-03T06:59:30.527Z,36.55
2019-04-03T07:02:01.409Z,37.04
2019-04-03T07:04:33.131Z,37.74
2019-04-03T07:07:03.969Z,38.17
2019-04-03T07:09:36.664Z,38.60
2019-04-03T07:12:08.836Z,40.32
2019-04-03T07:14:39.508Z,41.73
2019-04-03T07:17:10.208Z,45.40
2019-04-03T07:19:42.281Z,47.73
2019-04-03T07:22:13.332Z,48.04
2019-04-03T07:24:44.069Z,49.13
2019-04-03T07:27:15.548Z,50.30
2019-04-03T07:29:46.865Z,51.61
2019-04-03T07:32:19.728Z,50.60
2019-04-03T07:34:50.333Z,49.78
2019-04-03T07:37:25.133Z,51.58
2019-04-03T07:39:58.335Z,50.54
2019-04-03T07:42:27.969Z,52.00
2019-04-03T07:45:00.043Z,50.97
2019-04-03T07:47:31.408Z,53.03
2019-04-03T07:50:03.492Z,53.58
2019-04-03T07:52:34.876Z,52.95
2019-04-03T07:55:05.932Z,54.02
2019-04-03T07:57:37.488Z,53.56
2019-04-03T08:00:11.131Z,53.59
2019-04-03T08:02:47.467Z,53.96
2019-04-03T08:05:16.388Z,54.94
2019-04-03T08:07:47.466Z,54.31
2019-04-03T08:10:18.415Z,54.82
2019-04-03T08:12:49.978Z,55.63
2019-04-03T08:15:20.755Z,55.88
2019-04-03T08:17:51.536Z,54.43
2019-04-03T08:20:23.535Z,54.91
2019-04-03T08:22:54.268Z,54.14
2019-04-03T08:25:26.548Z,53.68
2019-04-03T08:27:57.664Z,52.04
2019-04-03T08:30:28.399Z,54.09
2019-04-03T08:32:58.977Z,52.35
2019-04-03T08:35:29.778Z,52.98
2019-04-03T08:38:00.324Z,55.40
2019-04-03T08:40:31.220Z,55.17
2019-04-03T08:43:03.052Z,54.62
2019-04-03T08:45:33.644Z,53.18
2019-04-03T08:48:06.362Z,54.56
2019-04-03T08:50:37.124Z,54.66
2019-04-03T08:53:08.756Z,53.62
2019-04-03T08:55:39.333Z,53.85
2019-04-03T08:58:10.018Z,54.66
2019-04-03T09:00:40.802Z,54.74
2019-04-03T09:03:12.262Z,53.07
2019-04-03T09:05:44.319Z,51.51
2019-04-03T09:08:14.833Z,51.25
2019-04-03T09:10:45.728Z,49.92
2019-04-03T09:13:21.864Z,49.77
2019-04-03T09:15:50.663Z,48.16
2019-04-03T09:18:23.197Z,48.97
2019-04-03T09:20:53.721Z,43.33
2019-04-03T09:23:25.093Z,45.57
2019-04-03T09:25:56.275Z,48.38
2019-04-03T09:28:26.844Z,49.08
2019-04-03T09:30:57.729Z,50.47
2019-04-03T09:33:30.250Z,51.24
2019-04-03T09:36:04.528Z,50.49
2019-04-03T09:38:36.517Z,50.94
2019-04-03T09:41:07.623Z,50.50
2019-04-03T09:43:39.683Z,52.21
2019-04-03T09:46:11.391Z,51.91
2019-04-03T09:48:42.920Z,52.91
2019-04-03T09:51:13.402Z,52.65
2019-04-03T09:53:44.342Z,53.40
2019-04-03T09:56:14.672Z,53.34
2019-04-03T09:58:46.190Z,52.35
2019-04-03T10:01:18.770Z,51.82
2019-04-03T10:03:49.272Z,48.67
2019-04-03T10:06:19.941Z,48.78
2019-04-03T10:08:51.449Z,47.86
2019-04-03T10:11:22.186Z,48.81
2019-04-03T10:13:53.046Z,45.72
2019-04-03T10:16:24.098Z,43.42
2019-04-03T10:18:54.848Z,41.81
2019-04-03T10:21:25.344Z,41.75
2019-04-03T10:23:59.091Z,42.32
2019-04-03T10:26:31.707Z,42.95
2019-04-03T10:29:05.144Z,43.03
2019-04-03T10:31:35.740Z,38.88
2019-04-03T10:34:06.449Z,38.34
2019-04-03T10:36:41.609Z,39.54
2019-04-03T10:39:13.597Z,38.62
2019-04-03T10:41:47.441Z,38.86
2019-04-03T10:44:18.262Z,39.70
2019-04-03T10:46:49.928Z,40.02
2019-04-03T10:49:22.343Z,34.43
2019-04-03T10:51:56.932Z,35.93
2019-04-03T10:54:27.570Z,38.50
2019-04-03T10:56:58.671Z,36.83
2019-04-03T10:59:29.057Z,34.45
2019-04-03T11:05:27.865Z,35.52
2019-04-03T11:07:59.251Z,36.00
2019-04-03T11:10:29.824Z,33.27
2019-04-03T11:13:02.805Z,31.05
2019-04-03T11:15:33.674Z,32.34
2019-04-03T11:18:07.000Z,33.37
2019-04-03T11:20:40.286Z,34.96
2019-04-03T11:23:11.300Z,33.39
2019-04-03T11:25:42.281Z,32.03
2019-04-03T11:28:14.125Z,31.89
2019-04-03T11:30:45.174Z,31.73
2019-04-03T11:33:15.930Z,32.69
2019-04-03T11:35:47.239Z,33.06
2019-04-03T11:38:26.293Z,31.25
2019-04-03T11:40:50.760Z,31.39
2019-04-03T11:43:21.925Z,30.94
2019-04-03T11:45:52.585Z,31.22
2019-04-03T11:48:26.528Z,30.13
2019-04-03T11:50:57.666Z,30.63
2019-04-03T11:53:28.746Z,31.44
2019-04-03T11:55:59.030Z,32.40
2019-04-03T11:58:29.940Z,35.42
2019-04-03T12:01:00.466Z,36.19
2019-04-03T12:03:31.125Z,35.66
2019-04-03T12:06:01.699Z,33.72
2019-04-03T12:08:32.237Z,32.03
2019-04-03T12:11:05.330Z,32.53
2019-04-03T12:13:35.685Z,32.52
2019-04-03T12:16:08.389Z,31.78
2019-04-03T12:18:39.389Z,31.94
2019-04-03T12:21:13.648Z,31.28
2019-04-03T12:23:42.574Z,32.90
2019-04-03T12:26:13.349Z,32.14
2019-04-03T12:28:43.848Z,31.98
2019-04-03T12:31:14.631Z,32.86
2019-04-03T12:33:53.955Z,31.84
2019-04-03T12:36:17.409Z,31.35
2019-04-03T12:38:47.774Z,33.44
2019-04-03T12:41:18.394Z,32.38
2019-04-03T12:43:49.951Z,32.58
2019-04-03T12:46:37.491Z,34.24
2019-04-03T12:49:09.922Z,35.16
2019-04-03T12:51:40.277Z,35.56
2019-04-03T12:54:12.805Z,36.31
2019-04-03T12:56:43.506Z,38.80
2019-04-03T12:59:14.025Z,39.89
2019-04-03T13:01:44.688Z,40.29
2019-04-03T13:04:15.431Z,42.05
2019-04-03T13:06:46.136Z,40.04
2019-04-03T13:09:17.411Z,39.00
2019-04-03T13:11:49.822Z,38.24
2019-04-03T13:14:26.094Z,38.90
2019-04-03T13:16:54.641Z,37.12
2019-04-03T13:19:25.635Z,35.71
2019-04-03T13:21:57.106Z,37.88
2019-04-03T13:24:28.228Z,36.10
2019-04-03T13:26:59.609Z,35.19
2019-04-03T13:29:30.906Z,39.91
2019-04-03T13:32:01.850Z,41.68
2019-04-03T13:34:32.784Z,40.00
2019-04-03T13:37:04.558Z,41.27
2019-04-03T13:39:35.065Z,43.01
2019-04-03T13:42:06.312Z,43.19
2019-04-03T13:44:37.447Z,43.50
2019-04-03T13:47:09.107Z,43.22
2019-04-03T13:49:40.277Z,42.91
2019-04-03T13:52:11.005Z,44.21
2019-04-03T13:54:41.548Z,44.59
2019-04-03T13:57:14.655Z,46.32
2019-04-03T13:59:44.431Z,46.99
2019-04-03T14:02:15.253Z,49.28
2019-04-03T14:04:48.442Z,49.91
2019-04-03T14:07:18.903Z,48.61
2019-04-03T14:09:53.748Z,48.77
2019-04-03T14:12:22.350Z,47.60
2019-04-03T14:14:53.572Z,45.64
2019-04-03T14:17:24.779Z,47.97
2019-04-03T14:19:55.429Z,49.30
2019-04-03T14:22:26.020Z,49.08
2019-04-03T14:24:56.604Z,43.56
2019-04-03T14:27:30.554Z,44.03
2019-04-03T14:29:59.861Z,45.51
2019-04-03T14:32:30.433Z,48.08
2019-04-03T14:35:09.507Z,47.91
2019-04-03T14:37:33.309Z,46.26
2019-04-03T14:40:04.673Z,47.83
2019-04-03T14:42:35.457Z,50.38
2019-04-03T14:45:07.199Z,50.64
2019-04-03T14:47:37.619Z,49.86
2019-04-03T14:50:09.078Z,49.46
2019-04-03T14:52:39.860Z,48.65
2019-04-03T14:55:18.082Z,49.72
2019-04-03T14:57:42.860Z,50.26
2019-04-03T15:00:27.434Z,47.76
2019-04-03T15:02:47.578Z,47.49
2019-04-03T15:05:18.021Z,46.15
2019-04-03T15:07:50.606Z,46.15
2019-04-03T15:10:22.947Z,47.60
2019-04-03T15:12:53.580Z,48.24
2019-04-03T15:15:26.370Z,45.28
2019-04-03T15:17:56.668Z,44.56
2019-04-03T15:20:27.498Z,44.10
2019-04-03T15:22:58.015Z,39.77
2019-04-03T15:25:29.530Z,39.35
2019-04-03T15:28:00.487Z,39.35
2019-04-03T15:30:31.401Z,42.51
2019-04-03T15:33:02.427Z,40.25
2019-04-03T15:35:34.242Z,40.14
2019-04-03T15:38:05.299Z,37.38
2019-04-03T15:40:36.828Z,37.38
2019-04-03T15:43:11.928Z,37.43
2019-04-03T15:45:41.551Z,37.69
2019-04-03T15:48:12.408Z,36.75
2019-04-03T15:50:43.160Z,36.75
2019-04-03T15:53:13.807Z,35.96
2019-04-03T15:55:44.832Z,43.56
2019-04-03T15:58:15.320Z,43.56
2019-04-03T16:00:45.867Z,44.50
2019-04-03T16:03:17.551Z,44.50
2019-04-03T16:05:49.117Z,45.85
2019-04-03T16:08:19.681Z,45.67
2019-04-03T16:10:50.681Z,45.67
2019-04-03T16:13:22.088Z,46.67
2019-04-03T16:15:56.303Z,48.39
2019-04-03T16:18:25.273Z,51.27
2019-04-03T16:20:55.988Z,51.21
2019-04-03T16:23:28.542Z,51.34
2019-04-03T16:25:59.210Z,51.24
2019-04-03T16:28:33.285Z,51.13
2019-04-03T16:31:03.719Z,51.20
2019-04-03T16:33:35.800Z,50.13
2019-04-03T16:36:07.798Z,50.09
2019-04-03T16:38:39.194Z,49.22
2019-04-03T16:41:11.285Z,49.37
2019-04-03T16:43:43.960Z,51.06
2019-04-03T16:46:14.695Z,52.27
2019-04-03T16:48:45.551Z,51.32
2019-04-03T16:51:16.631Z,51.21
2019-04-03T16:53:47.200Z,51.99
2019-04-03T16:56:18.967Z,52.40
2019-04-03T16:58:51.125Z,53.49
2019-04-03T17:01:21.665Z,53.51
2019-04-03T17:03:52.573Z,53.92
2019-04-03T17:06:23.328Z,53.59
2019-04-03T17:08:54.427Z,52.80
2019-04-03T17:11:25.058Z,51.80
2019-04-03T17:13:57.106Z,50.87
2019-04-03T17:16:27.692Z,50.86
2019-04-03T17:18:58.289Z,51.66
2019-04-03T17:21:35.762Z,51.55
2019-04-03T17:24:01.272Z,51.50
2019-04-03T17:26:33.081Z,51.18
2019-04-03T17:29:06.019Z,51.07
2019-04-03T17:31:36.867Z,51.67
2019-04-03T17:34:08.371Z,52.39
2019-04-03T17:36:40.249Z,51.43
2019-04-03T17:40:05.705Z,50.80
2019-04-03T17:42:37.140Z,50.87
2019-04-03T17:45:09.260Z,50.81
2019-04-03T17:47:39.806Z,51.10
2019-04-03T17:50:10.767Z,50.72
2019-04-03T17:52:41.417Z,49.92
2019-04-03T17:55:12.906Z,49.59
2019-04-03T17:57:45.329Z,49.29
2019-04-03T18:00:18.789Z,49.17
2019-04-03T18:02:49.439Z,49.79
2019-04-03T18:05:20.281Z,50.41
2019-04-03T18:07:51.008Z,50.28
2019-04-03T18:10:23.124Z,49.76
2019-04-03T18:12:53.507Z,49.92
2019-04-03T18:15:27.235Z,48.42
2019-04-03T18:18:01.004Z,48.09
2019-04-03T18:20:35.589Z,47.78
2019-04-03T18:23:06.395Z,47.25
2019-04-03T18:25:37.073Z,47.17
2019-04-03T18:28:07.784Z,47.16
2019-04-03T18:30:38.509Z,47.11
2019-04-03T18:33:09.457Z,47.05
2019-04-03T18:35:40.532Z,47.10
2019-04-03T18:38:12.206Z,47.44
2019-04-03T18:40:45.485Z,48.32
2019-04-03T18:43:15.111Z,48.80
2019-04-03T18:45:47.473Z,48.83
2019-04-03T18:48:19.520Z,48.36
2019-04-03T18:50:50.359Z,48.00
2019-04-03T18:53:21.023Z,47.95
2019-04-03T18:55:53.205Z,48.25
2019-04-03T18:58:24.022Z,48.91
2019-04-03T19:00:55.446Z,49.03
2019-04-03T19:03:26.084Z,48.90
2019-04-03T19:05:56.654Z,48.16
2019-04-03T19:08:27.394Z,49.16
2019-04-03T19:11:02.675Z,49.49
2019-04-03T19:13:30.235Z,49.34
2019-04-03T19:16:02.415Z,49.65
2019-04-03T19:18:33.220Z,49.48
2019-04-03T19:21:03.983Z,49.45
2019-04-03T19:23:34.680Z,49.02
2019-04-03T19:26:06.295Z,49.02
2019-04-03T19:28:36.764Z,49.21
2019-04-03T19:31:09.275Z,49.64
2019-04-03T19:33:40.185Z,50.27
2019-04-03T19:36:11.626Z,50.50
2019-04-03T19:38:42.221Z,50.68
2019-04-03T19:41:12.997Z,51.03
2019-04-03T19:43:44.051Z,51.12
2019-04-03T19:46:17.275Z,50.96
2019-04-03T19:48:49.305Z,51.05
2019-04-03T19:51:19.818Z,50.86
2019-04-03T19:53:58.951Z,50.75
2019-04-03T19:56:25.736Z,50.29
2019-04-03T19:58:55.391Z,50.38
2019-04-03T20:01:26.098Z,50.81
2019-04-03T20:03:56.714Z,50.51
2019-04-03T20:06:27.484Z,50.56
2019-04-03T20:08:59.016Z,51.05
2019-04-03T20:11:30.602Z,51.08
2019-04-03T20:14:01.184Z,51.08
2019-04-03T20:16:32.363Z,51.22
2019-04-03T20:19:02.982Z,51.33
2019-04-03T20:21:34.057Z,50.71
2019-04-03T20:24:06.049Z,49.96
2019-04-03T20:26:36.650Z,50.17
2019-04-03T20:29:07.534Z,50.56
2019-04-03T20:31:40.642Z,50.65
2019-04-03T20:34:12.830Z,50.91
2019-04-03T20:36:42.689Z,50.86
2019-04-03T20:39:13.392Z,50.82
2019-04-03T20:41:43.967Z,50.79
2019-04-03T20:44:16.595Z,50.74
2019-04-03T20:46:46.931Z,50.96
2019-04-03T20:49:17.518Z,51.04
2019-04-03T20:51:48.744Z,50.71
2019-04-03T20:54:21.380Z,50.60
2019-04-03T20:56:57.667Z,50.57
2019-04-03T20:59:25.670Z,50.57
2019-04-03T21:01:56.624Z,50.50
2019-04-03T21:04:27.403Z,50.60
2019-04-03T21:06:58.108Z,50.69
2019-04-03T21:09:30.452Z,50.72
2019-04-03T21:12:04.712Z,50.84
2019-04-03T21:14:34.066Z,50.86
2019-04-03T21:17:04.672Z,51.08
2019-04-03T21:19:35.510Z,51.02
2019-04-03T21:22:06.167Z,51.06
2019-04-03T21:24:36.869Z,51.16
2019-04-03T21:27:08.829Z,51.10
2019-04-03T21:29:40.251Z,50.21
2019-04-03T21:32:11.435Z,49.67
2019-04-03T21:34:42.895Z,49.89
2019-04-03T21:37:14.213Z,50.86
2019-04-03T21:39:44.868Z,51.76
2019-04-03T21:42:15.425Z,52.40
2019-04-03T21:44:46.194Z,52.69
2019-04-03T21:47:17.759Z,52.39
2019-04-03T21:49:48.521Z,52.30
2019-04-03T21:52:20.919Z,52.04
2019-04-03T21:54:51.585Z,52.27
2019-04-03T21:57:23.549Z,52.57
2019-04-03T21:59:54.169Z,52.75
2019-04-03T22:02:24.859Z,52.98
2019-04-03T22:04:55.432Z,53.28
2019-04-03T22:07:28.265Z,53.74
2019-04-03T22:10:00.003Z,53.83
2019-04-03T22:12:30.976Z,53.68
2019-04-03T22:15:01.744Z,52.47
2019-04-03T22:17:32.509Z,52.54
2019-04-03T22:20:02.983Z,52.69
2019-04-03T22:22:33.843Z,52.62
2019-04-03T22:25:08.647Z,53.13
2019-04-03T22:27:37.801Z,52.96
2019-04-03T22:30:08.619Z,53.11
2019-04-03T22:32:39.496Z,52.96
2019-04-03T22:35:10.424Z,52.95
2019-04-03T22:37:41.042Z,52.49
2019-04-03T22:40:12.873Z,52.84
2019-04-03T22:42:45.326Z,52.87
2019-04-03T22:45:16.013Z,52.96
2019-04-03T22:47:48.034Z,53.00
2019-04-03T22:50:20.565Z,54.04
2019-04-03T22:52:51.630Z,53.22
2019-04-03T22:55:22.115Z,53.06
2019-04-03T22:57:53.092Z,52.96
2019-04-03T23:00:23.897Z,53.69
2019-04-03T23:02:56.806Z,52.92
2019-04-03T23:05:27.604Z,53.19
2019-04-03T23:07:59.791Z,52.83
2019-04-03T23:10:30.419Z,52.95
2019-04-03T23:13:01.004Z,53.23
2019-04-03T23:15:34.399Z,53.55
2019-04-03T23:18:05.008Z,53.79
2019-04-03T23:20:36.375Z,53.51
2019-04-03T23:23:07.740Z,53.74
2019-04-03T23:25:38.292Z,53.54
2019-04-03T23:28:08.940Z,53.77
2019-04-03T23:30:40.994Z,54.01
2019-04-03T23:33:12.379Z,54.05
2019-04-03T23:35:43.079Z,54.28
2019-04-03T23:38:13.850Z,54.50
2019-04-03T23:40:44.519Z,54.36
2019-04-03T23:43:16.548Z,54.61
2019-04-03T23:45:47.244Z,54.81
2019-04-03T23:48:18.463Z,55.13
2019-04-03T23:50:52.374Z,54.98
2019-04-03T23:53:21.798Z,55.01
2019-04-03T23:55:52.369Z,54.58
2019-04-03T23:58:23.108Z,54.64
